createdAt,value
2022-11-09T00:01:51.246Z,8.90
2022-11-09T00:06:47.549Z,9.82
2022-11-09T00:11:43.796Z,10.32
2022-11-09T00:16:40.010Z,9.77
2022-11-09T00:21:36.212Z,9.98
2022-11-09T00:26:32.416Z,11.25
2022-11-09T00:31:28.662Z,10.85
2022-11-09T00:36:25.685Z,9.80
2022-11-09T00:41:22.549Z,10.55
2022-11-09T00:46:19.444Z,10.30
2022-11-09T00:51:15.893Z,9.98
2022-11-09T00:56:12.604Z,10.73
2022-11-09T01:01:11.208Z,10.55
2022-11-09T01:06:08.288Z,11.25
2022-11-09T01:11:05.562Z,11.73
2022-11-09T01:16:04.744Z,11.63
2022-11-09T01:21:01.847Z,11.98
2022-11-09T01:26:02.171Z,11.23
2022-11-09T01:31:02.338Z,11.20
2022-11-09T01:36:02.469Z,11.65
2022-11-09T01:40:59.003Z,12.25
2022-11-09T01:46:06.387Z,12.20
2022-11-09T01:51:09.721Z,12.30
2022-11-09T01:56:07.688Z,13.25
2022-11-09T02:01:05.003Z,13.70
2022-11-09T02:06:04.010Z,13.20
2022-11-09T02:11:03.260Z,14.73
2022-11-09T02:15:59.573Z,15.63
2022-11-09T02:20:57.177Z,15.63
2022-11-09T02:26:01.921Z,15.15
2022-11-09T02:30:58.850Z,16.65
2022-11-09T02:35:55.159Z,15.43
2022-11-09T02:40:51.849Z,15.32
2022-11-09T02:45:48.098Z,14.73
2022-11-09T02:50:44.272Z,14.88
2022-11-09T02:55:40.587Z,14.63
2022-11-09T03:00:36.798Z,14.77
2022-11-09T03:05:33.026Z,15.75
2022-11-09T03:10:29.369Z,16.40
2022-11-09T03:15:25.669Z,16.38
2022-11-09T03:20:21.919Z,16.77
2022-11-09T03:25:18.185Z,17.35
2022-11-09T03:30:14.656Z,17.17
2022-11-09T03:35:10.944Z,17.80
2022-11-09T03:40:07.381Z,19.40
2022-11-09T03:45:03.716Z,18.23
2022-11-09T03:49:59.919Z,18.20
2022-11-09T03:54:56.136Z,17.58
2022-11-09T03:59:52.334Z,17.88
2022-11-09T04:04:48.534Z,19.15
2022-11-09T04:09:44.724Z,17.33
2022-11-09T04:14:41.167Z,19.45
2022-11-09T04:19:37.409Z,17.92
2022-11-09T04:24:33.601Z,17.80
2022-11-09T04:29:30.035Z,17.88
2022-11-09T04:34:26.390Z,18.88
2022-11-09T04:39:22.605Z,19.80
2022-11-09T04:44:18.839Z,19.90
2022-11-09T04:49:15.041Z,21.05
2022-11-09T04:54:11.562Z,22.25
2022-11-09T04:59:07.917Z,22.23
2022-11-09T05:04:04.330Z,22.25
2022-11-09T05:09:01.669Z,23.10
2022-11-09T05:13:58.099Z,23.80
2022-11-09T05:18:54.708Z,26.35
2022-11-09T05:24:00.352Z,27.73
2022-11-09T05:28:58.927Z,27.65
2022-11-09T05:33:55.271Z,29.80
2022-11-09T05:38:51.588Z,25.50
2022-11-09T05:43:47.806Z,26.55
2022-11-09T05:48:44.367Z,25.20
2022-11-09T05:53:45.137Z,24.45
2022-11-09T05:58:42.669Z,24.33
2022-11-09T06:03:40.274Z,26.13
2022-11-09T06:08:36.689Z,26.85
2022-11-09T06:13:33.221Z,27.48
2022-11-09T06:18:30.478Z,26.60
2022-11-09T06:23:27.111Z,29.63
2022-11-09T06:28:23.423Z,28.27
2022-11-09T06:33:19.928Z,29.98
2022-11-09T06:38:16.298Z,28.75
2022-11-09T06:43:12.547Z,27.25
2022-11-09T06:48:09.751Z,29.05
2022-11-09T06:53:07.292Z,26.98
2022-11-09T06:58:07.490Z,26.25
2022-11-09T07:03:03.907Z,26.33
2022-11-09T07:08:00.104Z,24.70
2022-11-09T07:12:59.680Z,25.65
2022-11-09T07:18:02.271Z,26.38
2022-11-09T07:22:58.451Z,25.42
2022-11-09T07:27:54.685Z,27.98
2022-11-09T07:38:07.654Z,28.15
2022-11-09T07:43:05.003Z,28.15
2022-11-09T07:48:02.372Z,26.92
2022-11-09T07:52:59.472Z,27.25
2022-11-09T07:57:56.647Z,26.52
2022-11-09T08:02:52.965Z,26.25
2022-11-09T08:07:53.825Z,24.33
2022-11-09T08:12:54.389Z,23.90
2022-11-09T08:17:50.662Z,24.58
2022-11-09T08:22:47.244Z,23.83
2022-11-09T08:27:43.537Z,24.25
2022-11-09T08:32:40.270Z,22.05
2022-11-09T08:37:37.552Z,20.30
2022-11-09T08:42:33.889Z,19.67
2022-11-09T08:47:30.108Z,19.67
2022-11-09T08:52:26.542Z,20.67
2022-11-09T08:57:23.769Z,21.20
2022-11-09T09:02:20.912Z,17.58
2022-11-09T09:07:17.202Z,17.38
2022-11-09T09:12:13.447Z,16.02
2022-11-09T09:17:10.740Z,16.88
2022-11-09T09:22:07.124Z,16.95
2022-11-09T09:27:03.495Z,16.25
2022-11-09T09:31:59.710Z,15.25
2022-11-09T09:36:56.094Z,14.80
2022-11-09T09:41:54.267Z,15.77
2022-11-09T09:46:58.359Z,13.13
2022-11-09T09:51:57.932Z,12.98
2022-11-09T09:56:57.344Z,12.55
2022-11-09T10:01:57.263Z,13.02
2022-11-09T10:06:59.714Z,12.57
2022-11-09T10:12:00.800Z,15.70
2022-11-09T10:17:13.550Z,12.82
2022-11-09T10:22:09.748Z,12.93
2022-11-09T10:27:17.528Z,12.27
2022-11-09T10:32:15.102Z,12.25
2022-11-09T10:37:20.918Z,12.25
2022-11-09T10:42:17.129Z,13.30
2022-11-09T10:47:14.862Z,13.90
2022-11-09T10:52:31.981Z,11.80
2022-11-09T10:57:28.159Z,11.18
2022-11-09T11:02:24.369Z,10.82
2022-11-09T11:07:21.941Z,10.73
2022-11-09T11:12:20.367Z,10.88
2022-11-09T11:17:22.725Z,12.02
2022-11-09T11:22:23.431Z,12.23
2022-11-09T11:27:23.391Z,12.52
2022-11-09T11:32:20.292Z,11.80
2022-11-09T11:37:16.522Z,11.77
2022-11-09T11:42:15.851Z,9.95
2022-11-09T11:47:30.761Z,10.00
2022-11-09T11:52:44.869Z,10.30
2022-11-09T11:57:51.930Z,13.05
2022-11-09T12:03:05.781Z,9.88
2022-11-09T12:08:21.291Z,14.15
2022-11-09T12:13:32.708Z,11.43
2022-11-09T12:18:47.578Z,10.80
2022-11-09T12:23:55.239Z,9.65
2022-11-09T12:29:03.089Z,10.52
2022-11-09T12:34:06.206Z,15.43
2022-11-09T12:39:05.896Z,9.75
2022-11-09T12:44:14.455Z,9.02
2022-11-09T12:49:31.740Z,14.13
2022-11-09T12:54:28.070Z,9.38
2022-11-09T12:59:27.330Z,11.75
2022-11-09T13:04:24.821Z,10.73
2022-11-09T13:09:24.331Z,11.60
2022-11-09T13:14:23.417Z,9.75
2022-11-09T13:19:34.789Z,13.00
2022-11-09T13:24:30.993Z,9.05
2022-11-09T13:29:28.644Z,8.40
2022-11-09T13:34:40.515Z,8.25
2022-11-09T13:39:37.797Z,9.68
2022-11-09T13:44:35.986Z,9.32
2022-11-09T13:49:39.121Z,11.80
2022-11-09T13:54:36.783Z,13.00
2022-11-09T13:59:42.588Z,14.18
2022-11-09T14:04:41.144Z,8.80
2022-11-09T14:09:45.598Z,8.95
2022-11-09T14:14:48.660Z,8.88
2022-11-09T14:20:09.210Z,9.88
2022-11-09T14:25:18.693Z,12.60
2022-11-09T14:30:20.658Z,10.15
2022-11-09T14:35:25.804Z,10.25
2022-11-09T14:40:26.362Z,9.95
2022-11-09T14:45:23.452Z,11.65
2022-11-09T14:50:27.036Z,9.90
2022-11-09T14:55:24.105Z,11.25
2022-11-09T15:00:23.275Z,12.25
2022-11-09T15:05:31.777Z,10.30
2022-11-09T15:10:30.570Z,9.13
2022-11-09T15:15:27.852Z,10.77
2022-11-09T15:20:26.198Z,10.70
2022-11-09T15:25:28.726Z,14.50
2022-11-09T15:35:21.334Z,10.68
2022-11-09T15:40:19.337Z,11.30
2022-11-09T15:45:16.723Z,10.15
2022-11-09T15:50:17.396Z,11.38
2022-11-09T15:55:14.695Z,10.50
2022-11-09T16:00:19.638Z,10.50
2022-11-09T16:05:18.202Z,11.35
2022-11-09T16:10:14.563Z,11.45
2022-11-09T16:15:10.878Z,10.38
2022-11-09T16:20:07.425Z,10.80
2022-11-09T16:25:03.797Z,10.55
2022-11-09T16:30:00.187Z,14.23
2022-11-09T16:35:23.334Z,10.82
2022-11-09T16:40:15.992Z,10.07
2022-11-09T16:45:14.312Z,12.73
2022-11-09T16:50:11.098Z,14.00
2022-11-09T16:55:09.211Z,19.00
2022-11-09T17:00:06.419Z,21.90
2022-11-09T17:05:02.762Z,27.02
2022-11-09T17:09:59.191Z,32.17
2022-11-09T17:14:55.493Z,39.13
2022-11-09T17:19:51.787Z,39.60
2022-11-09T17:24:48.040Z,32.25
2022-11-09T17:29:44.665Z,32.80
2022-11-09T17:34:40.873Z,25.33
2022-11-09T17:39:37.057Z,23.25
2022-11-09T17:44:36.466Z,20.05
2022-11-09T17:49:32.813Z,16.73
2022-11-09T17:54:33.956Z,17.25
2022-11-09T17:59:33.165Z,17.52
2022-11-09T18:04:29.476Z,15.70
2022-11-09T18:09:42.393Z,20.27
2022-11-09T18:14:39.126Z,17.00
2022-11-09T18:19:35.386Z,15.30
2022-11-09T18:24:32.948Z,14.68
2022-11-09T18:29:29.249Z,14.25
2022-11-09T18:34:25.433Z,16.23
2022-11-09T18:39:21.692Z,22.42
2022-11-09T18:44:18.038Z,24.45
2022-11-09T18:49:15.454Z,26.30
2022-11-09T18:54:12.045Z,28.80
2022-11-09T18:59:10.233Z,27.17
2022-11-09T19:04:06.643Z,24.85
2022-11-09T19:09:21.714Z,31.27
2022-11-09T19:14:17.933Z,36.15
2022-11-09T19:19:14.659Z,37.40
2022-11-09T19:24:12.165Z,35.22
2022-11-09T19:29:09.342Z,31.52
2022-11-09T19:34:05.553Z,25.35
2022-11-09T19:39:02.080Z,23.00
2022-11-09T19:43:58.617Z,23.33
2022-11-09T19:48:55.003Z,20.83
2022-11-09T19:53:55.444Z,20.38
2022-11-09T19:58:53.052Z,20.10
2022-11-09T20:03:53.246Z,21.33
2022-11-09T20:08:49.540Z,22.88
2022-11-09T20:13:46.200Z,23.48
2022-11-09T20:18:42.920Z,23.02
2022-11-09T20:23:39.175Z,21.60
2022-11-09T20:28:35.757Z,24.58
2022-11-09T20:33:32.010Z,22.42
2022-11-09T20:38:31.582Z,24.20
2022-11-09T20:43:27.884Z,22.30
2022-11-09T20:48:52.194Z,25.98
2022-11-09T20:53:40.540Z,24.80
2022-11-09T20:58:36.862Z,27.70
2022-11-09T21:03:33.504Z,27.98
2022-11-09T21:08:30.130Z,31.65
2022-11-09T21:13:26.548Z,34.28
2022-11-09T21:18:23.058Z,34.35
2022-11-09T21:23:19.594Z,39.17
2022-11-09T21:28:34.867Z,34.72
2022-11-09T21:33:31.086Z,37.08
2022-11-09T21:38:27.399Z,35.72
2022-11-09T21:43:23.803Z,36.63
2022-11-09T21:48:20.436Z,42.35
2022-11-09T21:53:16.901Z,41.72
2022-11-09T21:58:13.113Z,43.17
2022-11-09T22:03:09.411Z,42.97
2022-11-09T22:08:05.670Z,43.95
2022-11-09T22:13:20.867Z,41.75
2022-11-09T22:18:36.004Z,41.30
2022-11-09T22:23:32.440Z,47.22
2022-11-09T22:28:28.740Z,48.95
2022-11-09T22:33:27.469Z,48.38
2022-11-09T22:38:24.187Z,44.15
2022-11-09T22:43:20.902Z,54.28
2022-11-09T22:48:17.431Z,51.92
2022-11-09T22:53:13.629Z,51.85
2022-11-09T22:58:10.812Z,59.67
2022-11-09T23:03:07.089Z,58.15
2022-11-09T23:08:03.374Z,58.08
2022-11-09T23:12:59.799Z,61.28
2022-11-09T23:18:15.836Z,55.58
2022-11-09T23:23:12.057Z,58.05
2022-11-09T23:28:08.270Z,63.72
2022-11-09T23:33:04.499Z,67.40
2022-11-09T23:38:01.730Z,68.25
2022-11-09T23:43:01.620Z,71.53
2022-11-09T23:47:57.879Z,75.45
2022-11-09T23:52:58.193Z,66.93
2022-11-09T23:57:54.427Z,80.07
